Orbital elements of FENGYUN 1C DEB
| Launched | 9 May 1999 |
| Flight ended | – |
| Launch site | Taiyuan Space Center, PRC |
| Owner | People's Republic of China |
| NORAD ID | 29802 |
| Date fetched |
Epoch osculation |
Inc. [°] |
Ecc. | RA asc node [hr] |
Arg Peri. [°] |
Mean anom [°] |
Mean motion [rev/day] |
Abs. mag |
| Date fetched |
Epoch osculation |
Inc. [°] |
Ecc. | RA asc node [hr] |
Arg Peri. [°] |
Mean anom [°] |
Mean motion [rev/day] |
Abs. mag |
| 2026 May 07 17:58 | 2026 May 05 07:20:27 | 98.6239 | 0.00338 | 16.4157 | 250.5699 | 137.3452 | 14.67021 | – |
| 2026 May 06 17:57 | 2026 May 05 07:20:27 | 98.6239 | 0.00338 | 16.4157 | 250.5699 | 137.3452 | 14.67021 | – |
| 2026 May 05 17:57 | 2026 May 05 07:20:27 | 98.6239 | 0.00338 | 16.4157 | 250.5699 | 137.3452 | 14.67021 | – |
| 2026 May 04 17:57 | 2026 Apr 30 06:24:19 | 98.6229 | 0.00335 | 16.0626 | 266.4652 | 137.3452 | 14.67021 | – |
| 2026 May 03 17:57 | 2026 Apr 30 06:24:19 | 98.6229 | 0.00335 | 16.0626 | 266.4652 | 137.3452 | 14.67021 | – |
| 2026 May 02 17:57 | 2026 Apr 30 06:24:19 | 98.6229 | 0.00335 | 16.0626 | 266.4652 | 137.3452 | 14.67021 | – |
| 2026 May 01 17:56 | 2026 Apr 30 06:24:19 | 98.6229 | 0.00335 | 16.0626 | 266.4652 | 137.3452 | 14.67021 | – |
| 2026 Apr 30 17:56 | 2026 Apr 30 06:24:19 | 98.6229 | 0.00335 | 16.0626 | 266.4652 | 137.3452 | 14.67021 | – |
| 2026 Apr 29 17:57 | 2026 Apr 24 07:44:50 | 98.6215 | 0.00330 | 15.6460 | 285.4692 | 137.3452 | 14.67021 | – |
| 2026 Apr 28 17:56 | 2026 Apr 24 07:44:50 | 98.6215 | 0.00330 | 15.6460 | 285.4692 | 137.3452 | 14.67021 | – |
| 2026 Apr 27 17:58 | 2026 Apr 24 07:44:50 | 98.6215 | 0.00330 | 15.6460 | 285.4692 | 137.3452 | 14.67021 | – |
| 2026 Apr 26 17:58 | 2026 Apr 24 07:44:50 | 98.6215 | 0.00330 | 15.6460 | 285.4692 | 137.3452 | 14.67021 | – |
| 2026 Apr 25 17:58 | 2026 Apr 24 07:44:50 | 98.6215 | 0.00330 | 15.6460 | 285.4692 | 137.3452 | 14.67021 | – |
| 2026 Apr 24 17:59 | 2026 Apr 24 07:44:50 | 98.6215 | 0.00330 | 15.6460 | 285.4692 | 137.3452 | 14.67021 | – |
| 2026 Apr 23 17:57 | 2026 Apr 19 06:36:53 | 98.6232 | 0.00329 | 15.2925 | 301.8365 | 137.3452 | 14.67021 | – |
| 2026 Apr 22 17:57 | 2026 Apr 19 06:36:53 | 98.6232 | 0.00329 | 15.2925 | 301.8365 | 137.3452 | 14.67021 | – |
| 2026 Apr 21 17:57 | 2026 Apr 19 06:36:53 | 98.6232 | 0.00329 | 15.2925 | 301.8365 | 137.3452 | 14.67021 | – |
| 2026 Apr 20 17:57 | 2026 Apr 19 06:36:53 | 98.6232 | 0.00329 | 15.2925 | 301.8365 | 137.3452 | 14.67021 | – |
| 2026 Apr 19 17:58 | 2026 Apr 19 06:36:53 | 98.6232 | 0.00329 | 15.2925 | 301.8365 | 137.3452 | 14.67021 | – |
| 2026 Apr 18 17:56 | 2026 Apr 13 06:31:21 | 98.6206 | 0.00328 | 14.8720 | 321.3812 | 137.3452 | 14.67021 | – |
| 2026 Apr 16 17:57 | 2026 Apr 13 06:31:21 | 98.6206 | 0.00328 | 14.8720 | 321.3812 | 137.3452 | 14.67021 | – |
| 2026 Apr 14 17:57 | 2026 Apr 13 06:31:21 | 98.6206 | 0.00328 | 14.8720 | 321.3812 | 137.3452 | 14.67021 | – |
| 2026 Apr 13 17:57 | 2026 Apr 13 06:31:21 | 98.6206 | 0.00328 | 14.8720 | 321.3812 | 137.3452 | 14.67021 | – |
| 2026 Apr 12 17:57 | 2026 Apr 08 06:59:01 | 98.6206 | 0.00329 | 14.5232 | 337.6964 | 137.3452 | 14.67021 | – |
| 2026 Apr 11 17:57 | 2026 Apr 08 06:59:01 | 98.6206 | 0.00329 | 14.5232 | 337.6964 | 137.3452 | 14.67021 | – |
| 2026 Apr 10 17:58 | 2026 Apr 08 06:59:01 | 98.6206 | 0.00329 | 14.5232 | 337.6964 | 137.3452 | 14.67021 | – |